Date,TemperatureHighF,TemperatureAvgF,TemperatureLowF,DewpointHighF,DewpointAvgF,DewpointLowF,HumidityHigh,HumidityAvg,HumidityLow,PressureMaxIn,PressureMinIn,WindSpeedMaxMPH,WindSpeedAvgMPH,GustSpeedMaxMPH,PrecipitationSumIn
2013-2-1,34,28,23,28,24,20,100,87,65,0.00,40.00,10,4,17,0.12
2013-2-2,32,23,18,24,20,18,100,92,70,0.00,40.00,9,6,13,0.00
2013-2-3,31,21,16,23,19,15,100,91,73,0.00,40.00,10,7,17,0.00
2013-2-4,31,27,21,29,24,17,100,89,65,0.00,40.00,8,4,13,0.00
2013-2-5,35,27,23,28,25,22,100,95,72,0.00,40.00,9,5,19,0.16
2013-2-6,30,22,16,26,20,15,100,91,65,0.00,40.00,9,3,19,0.08
2013-2-7,28,21,17,20,18,16,100,87,66,0.00,40.00,10,6,21,0.00
2013-2-8,26,21,15,23,20,15,100,97,87,0.00,40.00,15,8,19,0.00
2013-2-9,22,19,17,20,18,16,100,98,83,0.00,40.00,14,7,19,0.60
2013-2-10,19,16,8,19,15,5,100,98,94,0.00,40.00,14,6,23,0.80
2013-2-11,24,15,6,24,14,5,100,97,93,0.00,40.00,7,3,11,0.00
2013-2-12,25,21,16,25,21,16,100,99,97,0.00,40.00,9,5,19,0.00
2013-2-13,34,28,24,28,24,18,100,86,60,0.00,40.00,10,6,18,0.08
2013-2-14,33,24,20,23,18,14,99,78,55,0.00,40.00,12,5,18,0.00
2013-2-15,36,27,21,25,22,20,98,85,64,0.00,40.00,9,5,13,0.00
2013-2-16,34,26,18,26,22,18,100,84,61,0.00,40.00,11,7,18,0.12
2013-2-17,29,21,16,24,17,12,99,85,65,0.00,40.00,11,4,20,0.32
2013-2-18,25,18,11,15,12,8,99,78,50,0.00,40.00,13,6,18,0.00
2013-2-19,31,20,15,24,15,11,100,81,52,0.00,40.00,11,5,17,0.20
2013-2-20,23,20,15,22,20,11,100,98,92,0.00,40.00,13,7,17,0.76
2013-2-21,26,16,5,18,12,4,99,84,54,0.00,40.00,9,3,16,0.24
2013-2-22,25,20,14,24,19,13,100,95,77,0.00,40.00,10,5,17,0.36
2013-2-23,24,18,13,24,16,10,100,90,69,0.00,40.00,12,7,19,0.56
2013-2-24,28,17,6,15,12,5,96,80,53,0.00,40.00,7,3,12,0.00
2013-2-25,20,16,12,19,14,9,99,93,74,0.00,40.00,10,6,16,0.48
2013-2-26,24,17,7,18,14,6,97,87,65,0.00,40.00,6,2,13,0.00
2013-2-27,31,19,9,16,12,7,97,77,36,0.00,40.00,11,5,17,0.00
2013-2-28,26,21,15,26,20,12,100,96,82,0.00,40.00,7,5,12,0.16